createdAt,value
2019-02-09T00:01:03.643Z,64.89
2019-02-09T00:03:33.222Z,64.78
2019-02-09T00:06:03.289Z,64.59
2019-02-09T00:08:33.154Z,64.68
2019-02-09T00:11:03.405Z,64.61
2019-02-09T00:13:33.551Z,64.17
2019-02-09T00:16:03.703Z,64.24
2019-02-09T00:18:33.331Z,64.26
2019-02-09T00:21:02.815Z,64.55
2019-02-09T00:23:32.525Z,64.74
2019-02-09T00:26:02.074Z,64.14
2019-02-09T00:28:32.542Z,64.30
2019-02-09T00:31:02.603Z,64.68
2019-02-09T00:33:32.155Z,64.87
2019-02-09T00:36:02.136Z,65.22
2019-02-09T00:38:31.740Z,66.13
2019-02-09T00:41:01.408Z,67.14
2019-02-09T00:43:30.891Z,67.65
2019-02-09T00:46:00.503Z,68.22
2019-02-09T00:48:30.088Z,67.55
2019-02-09T00:50:59.902Z,67.41
2019-02-09T00:53:29.714Z,67.33
2019-02-09T00:55:59.552Z,66.60
2019-02-09T00:58:29.436Z,66.33
2019-02-09T01:00:59.011Z,65.93
2019-02-09T01:03:28.694Z,66.44
2019-02-09T01:05:59.706Z,65.87
2019-02-09T01:08:29.368Z,66.12
2019-02-09T01:10:58.867Z,65.79
2019-02-09T01:13:28.701Z,66.41
2019-02-09T01:15:58.445Z,66.43
2019-02-09T01:18:28.705Z,66.47
2019-02-09T01:20:58.237Z,66.61
2019-02-09T01:23:29.007Z,67.24
2019-02-09T01:25:58.601Z,67.96
2019-02-09T01:28:28.091Z,68.57
2019-02-09T01:30:57.765Z,68.94
2019-02-09T01:33:46.641Z,69.80
2019-02-09T01:36:17.557Z,70.46
2019-02-09T01:38:47.212Z,70.97
2019-02-09T01:41:16.861Z,71.41
2019-02-09T01:43:51.801Z,71.44
2019-02-09T01:46:21.321Z,71.81
2019-02-09T01:48:56.887Z,72.65
2019-02-09T01:51:29.519Z,73.11
2019-02-09T01:53:59.009Z,73.33
2019-02-09T01:56:28.513Z,73.23
2019-02-09T01:58:58.965Z,73.33
2019-02-09T02:01:28.475Z,73.67
2019-02-09T02:03:57.974Z,74.02
2019-02-09T02:06:27.491Z,73.49
2019-02-09T02:08:58.857Z,74.01
2019-02-09T02:11:28.857Z,73.94
2019-02-09T02:13:59.877Z,74.02
2019-02-09T02:16:30.283Z,73.60
2019-02-09T02:18:59.870Z,73.31
2019-02-09T02:21:29.375Z,73.46
2019-02-09T02:23:58.942Z,73.69
2019-02-09T02:26:28.449Z,72.64
2019-02-09T02:28:58.627Z,72.07
2019-02-09T02:31:28.517Z,72.41
2019-02-09T02:33:58.070Z,71.40
2019-02-09T02:36:27.697Z,71.86
2019-02-09T02:38:57.199Z,71.86
2019-02-09T02:41:26.837Z,72.23
2019-02-09T02:43:56.515Z,72.59
2019-02-09T02:46:26.005Z,73.24
2019-02-09T02:48:55.494Z,73.31
2019-02-09T02:51:25.034Z,73.10
2019-02-09T02:53:54.534Z,73.51
2019-02-09T02:56:24.021Z,74.13
2019-02-09T02:58:53.613Z,75.20
2019-02-09T03:01:23.201Z,74.78
2019-02-09T03:03:52.683Z,75.25
2019-02-09T03:06:22.271Z,74.76
2019-02-09T03:08:51.778Z,74.50
2019-02-09T03:11:21.287Z,74.75
2019-02-09T03:13:51.265Z,75.47
2019-02-09T03:16:22.080Z,75.22
2019-02-09T03:18:51.577Z,75.42
2019-02-09T03:21:21.796Z,75.03
2019-02-09T03:23:51.397Z,74.83
2019-02-09T03:26:20.972Z,75.00
2019-02-09T03:28:50.519Z,75.19
2019-02-09T03:31:20.141Z,75.67
2019-02-09T03:33:49.613Z,75.42
2019-02-09T03:36:19.233Z,75.61
2019-02-09T03:38:49.147Z,75.01
2019-02-09T03:41:18.711Z,75.44
2019-02-09T03:43:48.323Z,75.56
2019-02-09T03:46:17.981Z,75.25
2019-02-09T03:48:47.537Z,75.11
2019-02-09T03:51:17.207Z,75.18
2019-02-09T03:53:46.823Z,75.24
2019-02-09T03:56:16.313Z,74.84
2019-02-09T03:58:45.836Z,74.75
2019-02-09T04:01:15.407Z,74.38
2019-02-09T04:03:44.968Z,74.00
2019-02-09T04:06:15.037Z,73.54
2019-02-09T04:08:44.528Z,73.70
2019-02-09T04:11:14.019Z,73.89
2019-02-09T04:13:43.658Z,73.97
2019-02-09T04:16:13.150Z,74.33
2019-02-09T04:18:42.710Z,74.04
2019-02-09T04:21:12.310Z,73.73
2019-02-09T04:23:41.818Z,72.91
2019-02-09T04:26:11.320Z,73.37
2019-02-09T04:28:41.307Z,73.83
2019-02-09T04:31:10.932Z,74.28
2019-02-09T04:33:40.486Z,73.27
2019-02-09T04:36:10.065Z,73.79
2019-02-09T04:38:39.556Z,73.78
2019-02-09T04:41:09.460Z,74.21
2019-02-09T04:43:38.993Z,74.09
2019-02-09T04:46:08.518Z,73.65
2019-02-09T04:48:38.020Z,73.57
2019-02-09T04:51:07.752Z,73.70
2019-02-09T04:53:37.255Z,73.76
2019-02-09T04:56:06.857Z,74.20
2019-02-09T04:58:36.474Z,73.63
2019-02-09T05:01:13.812Z,73.35
2019-02-09T05:03:37.440Z,73.98
2019-02-09T05:06:07.056Z,74.03
2019-02-09T05:08:36.717Z,74.40
2019-02-09T05:11:06.422Z,75.23
2019-02-09T05:13:36.092Z,74.85
2019-02-09T05:16:05.726Z,74.76
2019-02-09T05:18:35.234Z,76.14
2019-02-09T05:21:04.752Z,76.25
2019-02-09T05:23:34.265Z,75.69
2019-02-09T05:26:03.776Z,76.27
2019-02-09T05:28:33.286Z,75.29
2019-02-09T05:31:02.794Z,75.01
2019-02-09T05:33:32.289Z,75.76
2019-02-09T05:36:01.938Z,75.33
2019-02-09T05:38:31.444Z,75.64
2019-02-09T05:41:00.944Z,74.55
2019-02-09T05:43:30.456Z,74.89
2019-02-09T05:45:59.950Z,74.57
2019-02-09T05:48:29.451Z,74.79
2019-02-09T05:50:59.377Z,74.87
2019-02-09T05:53:28.876Z,74.53
2019-02-09T05:55:58.382Z,74.66
2019-02-09T05:58:28.245Z,74.51
2019-02-09T06:00:57.722Z,75.11
2019-02-09T06:03:27.224Z,75.42
2019-02-09T06:05:56.743Z,74.27
2019-02-09T06:08:26.326Z,74.54
2019-02-09T06:10:55.862Z,74.93
2019-02-09T06:13:25.481Z,75.25
2019-02-09T06:15:54.958Z,74.50
2019-02-09T06:18:24.444Z,74.63
2019-02-09T06:20:54.430Z,74.32
2019-02-09T06:23:23.996Z,74.83
2019-02-09T06:25:53.505Z,74.62
2019-02-09T06:28:23.054Z,75.13
2019-02-09T06:30:52.617Z,74.84
2019-02-09T06:33:22.124Z,74.78
2019-02-09T06:35:51.705Z,75.28
2019-02-09T06:38:21.343Z,75.45
2019-02-09T06:40:50.841Z,74.98
2019-02-09T06:43:20.841Z,75.05
2019-02-09T06:45:50.333Z,74.92
2019-02-09T06:48:26.584Z,75.30
2019-02-09T06:50:58.010Z,75.38
2019-02-09T06:53:27.591Z,75.82
2019-02-09T06:55:57.267Z,75.95
2019-02-09T06:58:26.834Z,76.36
2019-02-09T07:00:56.822Z,76.12
2019-02-09T07:03:26.421Z,77.00
2019-02-09T07:05:56.082Z,76.57
2019-02-09T07:08:25.562Z,76.04
2019-02-09T07:10:55.101Z,75.96
2019-02-09T07:13:24.641Z,75.50
2019-02-09T07:15:54.148Z,76.69
2019-02-09T07:18:23.717Z,76.92
2019-02-09T07:20:53.575Z,77.38
2019-02-09T07:23:23.212Z,76.98
2019-02-09T07:25:52.937Z,77.28
2019-02-09T07:28:22.433Z,77.34
2019-02-09T07:30:52.077Z,77.15
2019-02-09T07:33:25.168Z,76.45
2019-02-09T07:35:54.720Z,76.50
2019-02-09T07:38:24.243Z,77.17
2019-02-09T07:40:54.043Z,77.84
2019-02-09T07:43:23.542Z,77.36
2019-02-09T07:45:53.549Z,76.21
2019-02-09T07:48:24.091Z,76.12
2019-02-09T07:50:53.955Z,75.96
2019-02-09T07:53:23.839Z,76.79
2019-02-09T07:55:53.433Z,77.81
2019-02-09T07:58:22.936Z,77.32
2019-02-09T08:00:52.508Z,77.58
2019-02-09T08:03:23.188Z,77.29
2019-02-09T08:05:52.769Z,76.89
2019-02-09T08:08:22.251Z,75.54
2019-02-09T08:10:51.795Z,74.30
2019-02-09T08:13:22.507Z,75.09
2019-02-09T08:15:52.319Z,74.02
2019-02-09T08:18:21.855Z,74.42
2019-02-09T08:20:51.461Z,73.95
2019-02-09T08:23:20.950Z,73.17
2019-02-09T08:25:50.591Z,72.37
2019-02-09T08:28:22.835Z,72.64
2019-02-09T08:30:53.291Z,73.24
2019-02-09T08:33:22.881Z,72.78
2019-02-09T08:35:52.394Z,71.46
2019-02-09T08:38:23.829Z,70.62
2019-02-09T08:40:53.557Z,69.25
2019-02-09T08:43:23.193Z,67.73
2019-02-09T08:45:52.838Z,68.25
2019-02-09T08:48:22.507Z,70.43
2019-02-09T08:50:59.325Z,71.58
2019-02-09T08:53:28.851Z,69.83
2019-02-09T08:55:58.340Z,68.11
2019-02-09T08:58:27.845Z,67.31
2019-02-09T09:00:57.513Z,67.06
2019-02-09T09:03:27.077Z,67.88
2019-02-09T09:05:56.728Z,67.25
2019-02-09T09:08:26.267Z,67.29
2019-02-09T09:10:55.835Z,66.53
2019-02-09T09:13:25.421Z,64.59
2019-02-09T09:15:59.867Z,63.89
2019-02-09T09:18:29.397Z,64.20
2019-02-09T09:21:03.959Z,65.00
2019-02-09T09:23:33.561Z,66.05
2019-02-09T09:26:03.156Z,65.65
2019-02-09T09:28:32.899Z,66.28
2019-02-09T09:31:02.735Z,62.46
2019-02-09T09:33:32.329Z,62.83
2019-02-09T09:36:01.983Z,60.04
2019-02-09T09:38:31.554Z,59.98
2019-02-09T09:41:01.294Z,61.46
2019-02-09T09:43:31.363Z,59.80
2019-02-09T09:46:00.886Z,56.49
2019-02-09T09:48:30.396Z,54.09
2019-02-09T09:51:00.102Z,51.96
2019-02-09T09:53:29.721Z,52.60
2019-02-09T09:55:59.355Z,55.26
2019-02-09T09:58:28.959Z,53.60
2019-02-09T10:00:58.557Z,56.21
2019-02-09T10:03:28.090Z,57.06
2019-02-09T10:05:57.724Z,54.72
2019-02-09T10:08:27.272Z,55.80
2019-02-09T10:10:56.787Z,55.77
2019-02-09T10:13:26.369Z,54.60
2019-02-09T10:15:56.307Z,54.34
2019-02-09T10:18:25.815Z,54.94
2019-02-09T10:20:55.330Z,54.30
2019-02-09T10:23:25.033Z,54.59
2019-02-09T10:25:54.558Z,52.70
2019-02-09T10:28:24.126Z,51.66
2019-02-09T10:30:53.678Z,49.22
2019-02-09T10:33:23.190Z,47.63
2019-02-09T10:35:52.743Z,47.18
2019-02-09T10:38:22.690Z,48.02
2019-02-09T10:40:52.215Z,47.94
2019-02-09T10:43:21.790Z,46.54
2019-02-09T10:45:51.313Z,46.22
2019-02-09T10:48:20.894Z,46.47
2019-02-09T10:50:50.530Z,49.03
2019-02-09T10:53:20.075Z,51.76
2019-02-09T10:55:49.641Z,47.28
2019-02-09T10:58:19.329Z,44.25
2019-02-09T11:00:53.442Z,47.92
2019-02-09T11:03:23.113Z,50.20
2019-02-09T11:05:52.957Z,51.28
2019-02-09T11:08:22.668Z,52.50
2019-02-09T11:10:52.305Z,52.21
2019-02-09T11:13:21.796Z,50.95
2019-02-09T11:15:51.425Z,51.25
2019-02-09T11:18:21.001Z,51.29
2019-02-09T11:20:50.507Z,50.17
2019-02-09T11:23:20.141Z,45.93
2019-02-09T11:25:49.725Z,41.15
2019-02-09T11:28:19.370Z,44.40
2019-02-09T11:30:48.988Z,45.73
2019-02-09T11:33:18.577Z,47.04
2019-02-09T11:35:48.147Z,47.74
2019-02-09T11:38:18.269Z,46.76
2019-02-09T11:40:47.908Z,45.80
2019-02-09T11:43:17.535Z,46.23
2019-02-09T11:45:47.436Z,46.29
2019-02-09T11:48:16.954Z,46.11
2019-02-09T11:50:47.226Z,45.06
2019-02-09T11:53:17.130Z,45.44
2019-02-09T11:55:46.647Z,45.11
2019-02-09T11:58:16.365Z,45.91
2019-02-09T12:00:53.146Z,47.11
2019-02-09T12:03:22.739Z,48.30
2019-02-09T12:05:54.203Z,47.47
2019-02-09T12:08:23.743Z,48.43
2019-02-09T12:10:53.255Z,48.89
2019-02-09T12:13:22.841Z,50.67
2019-02-09T12:15:52.472Z,53.50
2019-02-09T12:18:22.007Z,54.83
2019-02-09T12:20:51.512Z,55.17
2019-02-09T12:23:21.537Z,55.92
2019-02-09T12:25:51.072Z,57.16
2019-02-09T12:28:20.549Z,57.35
2019-02-09T12:30:50.112Z,56.78
2019-02-09T12:33:23.028Z,56.29
2019-02-09T12:35:50.867Z,54.27
2019-02-09T12:38:20.511Z,52.88
2019-02-09T12:40:50.173Z,52.12
2019-02-09T12:43:19.678Z,50.54
2019-02-09T12:45:49.469Z,50.01
2019-02-09T12:48:18.977Z,50.50
2019-02-09T12:50:48.610Z,50.57
2019-02-09T12:53:19.414Z,49.08
2019-02-09T12:55:49.015Z,49.28
2019-02-09T12:58:18.537Z,49.14
2019-02-09T13:00:48.202Z,49.23
2019-02-09T13:03:30.925Z,48.75
2019-02-09T13:05:56.669Z,45.55
2019-02-09T13:08:26.242Z,44.89
2019-02-09T13:10:55.845Z,42.87
2019-02-09T13:13:25.411Z,44.01
2019-02-09T13:15:54.886Z,44.31
2019-02-09T13:18:24.526Z,45.47
2019-02-09T13:20:54.137Z,46.88
2019-02-09T13:23:23.713Z,47.65
2019-02-09T13:25:53.352Z,48.97
2019-02-09T13:28:23.137Z,48.08
2019-02-09T13:30:53.082Z,48.04
2019-02-09T13:33:22.602Z,47.79
2019-02-09T13:35:52.131Z,45.95
2019-02-09T13:38:21.705Z,44.00
2019-02-09T13:40:51.271Z,45.70
2019-02-09T13:43:20.880Z,47.12
2019-02-09T13:45:52.231Z,47.93
2019-02-09T13:48:21.806Z,47.93
2019-02-09T13:50:51.745Z,48.53
2019-02-09T13:53:21.801Z,49.55
2019-02-09T13:55:51.375Z,51.13
2019-02-09T13:58:21.023Z,52.05
2019-02-09T14:00:50.671Z,52.97
2019-02-09T14:03:20.329Z,53.21
2019-02-09T14:05:50.051Z,53.05
2019-02-09T14:08:19.629Z,54.46
2019-02-09T14:10:49.217Z,54.87
2019-02-09T14:13:19.054Z,55.65
2019-02-09T14:15:48.557Z,56.05
2019-02-09T14:18:18.066Z,57.18
2019-02-09T14:20:47.606Z,60.77
2019-02-09T14:23:17.122Z,61.33
2019-02-09T14:25:46.782Z,64.25
2019-02-09T14:28:16.500Z,66.82
2019-02-09T14:30:46.100Z,68.94
2019-02-09T14:33:15.675Z,70.54
2019-02-09T14:35:45.793Z,72.19
2019-02-09T14:38:15.363Z,75.43
2019-02-09T14:40:44.947Z,74.88
2019-02-09T14:43:14.653Z,74.83
2019-02-09T14:45:45.205Z,74.40
2019-02-09T14:48:14.940Z,69.51
2019-02-09T14:50:44.822Z,63.39
2019-02-09T14:53:14.662Z,61.67
2019-02-09T14:55:44.389Z,59.55
2019-02-09T14:58:14.571Z,57.48
2019-02-09T15:00:53.877Z,57.12
2019-02-09T15:03:27.244Z,56.95
2019-02-09T15:05:55.076Z,55.18
2019-02-09T15:08:24.658Z,53.91
2019-02-09T15:10:54.454Z,52.94
2019-02-09T15:13:24.006Z,51.80
2019-02-09T15:16:09.994Z,51.84
2019-02-09T15:18:39.673Z,50.36
2019-02-09T15:21:13.379Z,51.24
2019-02-09T15:23:43.241Z,49.95
2019-02-09T15:26:12.904Z,50.21
2019-02-09T15:28:43.018Z,50.91
2019-02-09T15:31:13.310Z,50.23
2019-02-09T15:33:42.835Z,49.69
2019-02-09T15:36:12.583Z,50.05
2019-02-09T15:38:42.258Z,49.40
2019-02-09T15:41:11.998Z,50.15
2019-02-09T15:43:41.514Z,51.02
2019-02-09T15:46:11.230Z,51.63
2019-02-09T15:48:40.818Z,52.08
2019-02-09T15:51:10.428Z,52.63
2019-02-09T15:53:40.245Z,53.28
2019-02-09T15:56:09.916Z,53.12
2019-02-09T15:58:39.942Z,53.07
2019-02-09T16:01:09.700Z,52.95
2019-02-09T16:03:39.959Z,53.60
2019-02-09T16:06:09.652Z,53.82
2019-02-09T16:08:39.384Z,54.46
2019-02-09T16:11:08.906Z,54.26
2019-02-09T16:13:45.387Z,54.03
2019-02-09T16:16:10.014Z,54.11
2019-02-09T16:18:39.566Z,55.60
2019-02-09T16:21:09.331Z,57.42
2019-02-09T16:23:38.990Z,58.49
2019-02-09T16:26:08.881Z,59.97
2019-02-09T16:28:38.364Z,61.99
2019-02-09T16:31:08.171Z,64.07
2019-02-09T16:33:37.778Z,66.26
2019-02-09T16:36:07.367Z,69.75
2019-02-09T16:38:39.513Z,71.51
2019-02-09T16:41:09.509Z,72.62
2019-02-09T16:43:39.181Z,73.38
2019-02-09T16:46:08.912Z,72.55
2019-02-09T16:48:38.610Z,73.80
2019-02-09T16:51:08.163Z,74.11
2019-02-09T16:53:38.290Z,74.23
2019-02-09T16:56:07.966Z,73.96
2019-02-09T16:58:37.635Z,73.77
2019-02-09T17:01:07.464Z,73.52
2019-02-09T17:03:37.064Z,73.46
2019-02-09T17:06:07.179Z,75.00
2019-02-09T17:08:37.182Z,76.08
2019-02-09T17:11:06.906Z,78.27
2019-02-09T17:13:37.098Z,79.05
2019-02-09T17:16:07.070Z,78.27
2019-02-09T17:18:36.668Z,78.01
2019-02-09T17:21:06.278Z,78.56
2019-02-09T17:23:36.069Z,78.49
2019-02-09T17:26:05.825Z,79.22
2019-02-09T17:28:35.491Z,78.88
2019-02-09T17:31:05.674Z,79.05
2019-02-09T17:33:35.351Z,79.77
2019-02-09T17:36:05.387Z,80.12
2019-02-09T17:38:34.939Z,79.72
2019-02-09T17:41:04.865Z,80.15
2019-02-09T17:43:53.949Z,79.85
2019-02-09T17:46:23.741Z,79.62
2019-02-09T17:48:53.317Z,81.07
2019-02-09T17:51:22.976Z,80.37
2019-02-09T17:53:52.535Z,80.51
2019-02-09T17:56:22.239Z,79.96
2019-02-09T17:58:51.935Z,80.28
2019-02-09T18:01:21.584Z,80.53
2019-02-09T18:03:51.148Z,79.04
2019-02-09T18:06:21.473Z,79.58
2019-02-09T18:08:51.208Z,79.46
2019-02-09T18:11:20.854Z,79.29
2019-02-09T18:13:50.564Z,78.76
2019-02-09T18:16:20.078Z,79.28
2019-02-09T18:18:49.676Z,79.81
2019-02-09T18:21:19.392Z,80.62
2019-02-09T18:23:48.992Z,80.35
2019-02-09T18:26:18.572Z,79.82
2019-02-09T18:28:48.361Z,79.73
2019-02-09T18:31:17.981Z,79.81
2019-02-09T18:33:47.493Z,79.16
2019-02-09T18:36:17.066Z,78.75
2019-02-09T18:38:47.140Z,78.24
2019-02-09T18:41:16.677Z,78.34
2019-02-09T18:43:46.414Z,77.92
2019-02-09T18:46:16.071Z,77.29
2019-02-09T18:48:45.570Z,77.73
2019-02-09T18:51:15.246Z,77.72
2019-02-09T18:53:44.836Z,76.60
2019-02-09T18:56:14.621Z,77.37
2019-02-09T18:58:44.408Z,77.58
2019-02-09T19:01:14.162Z,77.86
2019-02-09T19:03:43.774Z,77.23
2019-02-09T19:06:13.462Z,77.51
2019-02-09T19:08:42.983Z,76.67
2019-02-09T19:11:12.522Z,76.45
2019-02-09T19:13:42.156Z,75.85
2019-02-09T19:16:13.279Z,76.30
2019-02-09T19:18:42.847Z,76.29
2019-02-09T19:21:12.560Z,75.66
2019-02-09T19:23:42.214Z,75.58
2019-02-09T19:26:11.981Z,75.54
2019-02-09T19:29:01.060Z,75.38
2019-02-09T19:31:30.707Z,76.20
2019-02-09T19:34:00.207Z,75.61
2019-02-09T19:36:29.805Z,74.24
2019-02-09T19:38:59.312Z,74.45
2019-02-09T19:41:28.803Z,74.55
2019-02-09T19:43:58.419Z,74.04
2019-02-09T19:46:28.002Z,74.23
2019-02-09T19:48:57.820Z,74.46
2019-02-09T19:51:27.700Z,74.27
2019-02-09T19:53:57.317Z,73.36
2019-02-09T19:56:28.215Z,73.41
2019-02-09T19:58:57.834Z,73.82
2019-02-09T20:01:27.318Z,75.08
2019-02-09T20:03:57.952Z,75.83
2019-02-09T20:06:27.817Z,75.85
2019-02-09T20:08:57.352Z,76.05
2019-02-09T20:11:27.298Z,75.07
2019-02-09T20:13:56.902Z,75.08
2019-02-09T20:16:27.947Z,73.81
2019-02-09T20:18:57.478Z,72.90
2019-02-09T20:21:27.037Z,72.81
2019-02-09T20:23:56.527Z,73.42
2019-02-09T20:26:26.041Z,73.68
2019-02-09T20:29:15.300Z,72.73
2019-02-09T20:31:44.794Z,73.05
2019-02-09T20:34:14.447Z,73.12
2019-02-09T20:36:43.980Z,73.26
2019-02-09T20:39:13.556Z,74.02
2019-02-09T20:41:43.074Z,74.34
2019-02-09T20:44:12.735Z,74.07
2019-02-09T20:46:42.272Z,74.66
2019-02-09T20:49:11.793Z,74.95
2019-02-09T20:51:42.825Z,75.30
2019-02-09T20:54:12.501Z,74.97
2019-02-09T20:56:42.485Z,74.46
2019-02-09T20:59:12.119Z,73.38
2019-02-09T21:01:41.770Z,74.07
2019-02-09T21:04:11.304Z,73.72
2019-02-09T21:06:40.838Z,73.06
2019-02-09T21:09:10.470Z,71.99
2019-02-09T21:11:39.984Z,72.60
2019-02-09T21:14:11.703Z,72.88
2019-02-09T21:16:41.202Z,72.60
2019-02-09T21:19:10.781Z,72.46
2019-02-09T21:21:40.335Z,71.91
2019-02-09T21:24:09.899Z,71.30
2019-02-09T21:26:39.741Z,71.85
2019-02-09T21:29:09.355Z,70.86
2019-02-09T21:31:38.845Z,71.08
2019-02-09T21:34:08.355Z,71.50
2019-02-09T21:36:37.937Z,71.58
2019-02-09T21:39:09.377Z,71.98
2019-02-09T21:41:38.949Z,71.30
2019-02-09T21:44:08.476Z,72.87
2019-02-09T21:46:38.064Z,73.41
2019-02-09T21:49:07.542Z,73.17
2019-02-09T21:51:37.543Z,72.66
2019-02-09T21:54:07.172Z,72.73
2019-02-09T21:56:36.675Z,72.67
2019-02-09T21:59:07.950Z,72.29
2019-02-09T22:01:37.454Z,73.08
2019-02-09T22:04:07.153Z,73.09
2019-02-09T22:06:36.692Z,73.26
2019-02-09T22:09:09.105Z,72.13
2019-02-09T22:11:38.624Z,71.67
2019-02-09T22:14:08.440Z,71.88
2019-02-09T22:16:37.956Z,72.33
2019-02-09T22:19:07.457Z,73.15
2019-02-09T22:21:37.052Z,73.43
2019-02-09T22:24:06.616Z,72.81
2019-02-09T22:26:36.125Z,72.14
2019-02-09T22:29:05.726Z,71.92
2019-02-09T22:31:35.237Z,71.67
2019-02-09T22:34:05.054Z,71.94
2019-02-09T22:36:37.153Z,71.61
2019-02-09T22:39:08.574Z,71.89
2019-02-09T22:41:38.090Z,71.04
2019-02-09T22:44:07.697Z,70.94
2019-02-09T22:46:39.061Z,70.87
2019-02-09T22:49:08.561Z,70.88
2019-02-09T22:51:38.150Z,71.43
2019-02-09T22:54:09.500Z,71.17
2019-02-09T22:56:39.073Z,70.64
2019-02-09T22:59:08.690Z,71.39
2019-02-09T23:01:42.254Z,70.74
2019-02-09T23:04:37.480Z,71.52
2019-02-09T23:07:07.819Z,71.91
2019-02-09T23:09:37.392Z,72.31
2019-02-09T23:12:07.254Z,71.38
2019-02-09T23:14:36.762Z,71.55
2019-02-09T23:17:06.285Z,71.54
2019-02-09T23:19:36.266Z,70.87
2019-02-09T23:22:05.895Z,71.82
2019-02-09T23:24:35.402Z,70.98
2019-02-09T23:27:04.941Z,70.57
2019-02-09T23:29:34.465Z,70.27
2019-02-09T23:32:04.028Z,69.89
2019-02-09T23:34:33.929Z,71.24
2019-02-09T23:37:03.436Z,70.25
2019-02-09T23:39:32.984Z,70.51
2019-02-09T23:42:02.523Z,70.71
2019-02-09T23:44:32.093Z,71.08
2019-02-09T23:47:01.655Z,71.39
2019-02-09T23:49:31.200Z,71.21
2019-02-09T23:52:00.706Z,71.92
2019-02-09T23:54:30.209Z,72.30
2019-02-09T23:57:00.191Z,72.42
2019-02-09T23:59:29.704Z,71.97
